Mariner Of The Seas — C6FV9 — position and weather

sailwx.info

Track history (hours):
 
Tides and Currents Weather Stations Pressure Air Temp Water Temp Dewpoint Dewpoint Depression Visibility Wind Speed Wind Dir Waves Ship Positions

Mariner Of The Seas

Operator: Royal Caribbean Cruises Ltd

Last reported at 2017-Dec-11 10:52 UTC. Time now 2017-Dec-11 13:28 UTC.
Position N 01°19' E 103°19'.

Type: Passenger vessel. MMSI: 311493000.

Date/timePositionNaut miles runAvg speedWind from/ knotsBaromVisibWave heightAir tempDewpointWater temp
2017-Dec-11 10:52N 01°19' E 103°19'821.3
2017-Dec-11 10:28N 01°14' E 103°26'1020.6
2017-Dec-11 10:00N 01°11' E 103°35'918.2
2017-Dec-11 09:30N 01°08' E 103°44'1017.5
2017-Dec-11 08:56N 01°13' E 103°52'3 6.5
2017-Dec-11 08:30N 01°16' E 103°52'0 0.7
2017-Dec-11 08:00N 01°16' E 103°52'0 0.0
2017-Dec-11 07:24N 01°16' E 103°52'0 0.0
2017-Dec-11 06:57N 01°16' E 103°52'0 0.0
2017-Dec-11 06:30N 01°16' E 103°52'0 0.0
2017-Dec-11 05:51N 01°16' E 103°52'0 0.0
2017-Dec-11 05:30N 01°16' E 103°52'0 0.0
2017-Dec-11 05:00N 01°16' E 103°52'0 0.0
2017-Dec-11 04:30N 01°16' E 103°52'0 0.0
2017-Dec-11 03:57N 01°16' E 103°52'0 0.0
2017-Dec-11 03:30N 01°16' E 103°52'0 0.0
2017-Dec-11 03:00N 01°16' E 103°52'0 0.0
2017-Dec-11 02:21N 01°16' E 103°52'0 0.0
2017-Dec-11 01:51N 01°16' E 103°52'0 0.0
2017-Dec-11 01:30N 01°16' E 103°52'0 0.0
2017-Dec-11 00:57N 01°16' E 103°52'0 0.0
2017-Dec-11 00:27N 01°16' E 103°52'0 0.0
2017-Dec-10 23:51N 01°16' E 103°52'1 1.8
2017-Dec-10 23:30N 01°15' E 103°52'3 6.7
2017-Dec-10 23:00N 01°13' E 103°54'510.2
2017-Dec-10 22:30N 01°10' E 103°49'611.9
2017-Dec-10 21:59N 01°06' E 103°44'611.9
2017-Dec-10 21:30N 01°03' E 103°40'612.8
2017-Dec-10 21:00N 01°05' E 103°34'713.0
2017-Dec-10 20:27N 01°09' E 103°28'612.6
2017-Dec-10 19:59N 01°12' E 103°23'712.7
2017-Dec-10 19:28N 01°17' E 103°18'29112.6
2017-Dec-09 20:17N 04°56' E 100°06'413.7
2017-Dec-09 20:00N 04°60' E 100°06'713.7
2017-Dec-09 19:30N 05°07' E 100°05'713.5
2017-Dec-09 19:00N 05°13' E 100°04'713.3
2017-Dec-09 18:29N 05°20' E 100°04'613.1
2017-Dec-09 18:00N 05°27' E 100°05'713.5
2017-Dec-09 17:29N 05°33' E 100°06'511.2
2017-Dec-09 17:00N 05°36' E 100°11'713.0
2017-Dec-09 16:29N 05°33' E 100°17'612.8
2017-Dec-09 16:00N 05°28' E 100°21'3 5.7
2017-Dec-09 15:30N 05°25' E 100°21'0 0.0
2017-Dec-09 15:00N 05°25' E 100°21'0 0.0
2017-Dec-09 14:30N 05°25' E 100°21'0 0.0
2017-Dec-09 14:00N 05°25' E 100°21'0 0.0
2017-Dec-09 08:48N 05°25' E 100°21'0 0.0
2017-Dec-09 08:24N 05°25' E 100°21'0 0.0
2017-Dec-09 08:00N 05°25' E 100°21'0 0.0
2017-Dec-09 07:30N 05°25' E 100°21'0 0.3
2017-Dec-09 07:00N 05°25' E 100°21'2 4.6
2017-Dec-09 06:30N 05°28' E 100°21'712.3
2017-Dec-09 05:54N 05°33' E 100°16'31516.5
2017-Dec-08 10:46N 01°18' E 103°20'622.1
2017-Dec-08 10:29N 01°15' E 103°25'1021.1
2017-Dec-08 10:00N 01°12' E 103°35'918.7
2017-Dec-08 09:30N 01°08' E 103°43'816.4
2017-Dec-08 09:00N 01°12' E 103°51'4 8.3
2017-Dec-08 08:30N 01°16' E 103°52'0 0.3
2017-Dec-08 08:00N 01°16' E 103°52'0 0.0
2017-Dec-08 07:30N 01°16' E 103°52'0 0.0
2017-Dec-08 07:00N 01°16' E 103°52'0 0.0
2017-Dec-08 06:30N 01°16' E 103°52'0 0.0
2017-Dec-08 06:00N 01°16' E 103°52'0 0.0
2017-Dec-08 05:24N 01°16' E 103°52'0 0.0
2017-Dec-08 05:00N 01°16' E 103°52'0 0.0
2017-Dec-08 04:30N 01°16' E 103°52'0 0.0
2017-Dec-08 03:57N 01°16' E 103°52'0 0.0
2017-Dec-08 03:30N 01°16' E 103°52'0 0.0
2017-Dec-08 03:00N 01°16' E 103°52'0 0.0
2017-Dec-08 02:30N 01°16' E 103°52'0 0.0
2017-Dec-08 02:00N 01°16' E 103°52'0 0.0
2017-Dec-08 01:30N 01°16' E 103°52'0 0.0
2017-Dec-08 00:54N 01°16' E 103°52'0 0.0
2017-Dec-08 00:30N 01°16' E 103°52'0 0.0
2017-Dec-07 23:57N 01°16' E 103°52'0 0.2
2017-Dec-07 23:30N 01°16' E 103°52'3 5.3
2017-Dec-07 23:00N 01°14' E 103°53'5 9.1
2017-Dec-07 22:30N 01°11' E 103°49'611.9
2017-Dec-07 22:00N 01°07' E 103°45'612.9
2017-Dec-07 21:30N 01°03' E 103°40'714.8
2017-Dec-07 21:01N 01°06' E 103°33'713.8
2017-Dec-07 20:30N 01°10' E 103°27'713.8
2017-Dec-07 20:00N 01°14' E 103°21'814.0
2017-Dec-07 19:28N 01°19' E 103°15'  
2017-Dec-04 10:30N 01°14' E 103°26'1121.6
2017-Dec-04 10:00N 01°12' E 103°36'918.4
2017-Dec-04 09:30N 01°09' E 103°45'815.8
2017-Dec-04 09:00N 01°13' E 103°52'3 6.7
2017-Dec-04 08:30N 01°16' E 103°52'0 0.0
2017-Dec-04 07:57N 01°16' E 103°52'0 0.0
2017-Dec-04 07:30N 01°16' E 103°52'0 0.0
2017-Dec-04 07:00N 01°16' E 103°52'0 0.0
2017-Dec-04 06:30N 01°16' E 103°52'0 0.0
2017-Dec-04 05:54N 01°16' E 103°52'0 0.0
2017-Dec-04 05:30N 01°16' E 103°52'0 0.0
2017-Dec-04 04:54N 01°16' E 103°52'0 0.0
2017-Dec-04 04:30N 01°16' E 103°52'0 0.0
2017-Dec-04 04:00N 01°16' E 103°52'0 0.0
2017-Dec-04 03:30N 01°16' E 103°52'0 0.0
2017-Dec-04 02:54N 01°16' E 103°52'0 0.0
2017-Dec-04 02:30N 01°16' E 103°52'0 0.0
2017-Dec-04 01:54N 01°16' E 103°52'0 0.0
2017-Dec-04 01:30N 01°16' E 103°52'0 0.0
2017-Dec-04 01:00N 01°16' E 103°52'0 0.0
2017-Dec-04 00:30N 01°16' E 103°52'0 0.1
2017-Dec-04 00:00N 01°16' E 103°52'3 6.5
2017-Dec-03 23:30N 01°13' E 103°54'4 8.7
2017-Dec-03 23:00N 01°11' E 103°50'4 8.7
2017-Dec-03 22:30N 01°09' E 103°47'5 9.5
2017-Dec-03 22:00N 01°05' E 103°43'611.3
2017-Dec-03 21:28N 01°03' E 103°38'612.7
2017-Dec-03 20:57N 01°07' E 103°32'612.7
2017-Dec-03 20:29N 01°10' E 103°27'30612.6
2017-Dec-02 20:14N 04°60' E 100°05'513.4
2017-Dec-02 19:52N 05°05' E 100°05'513.2
2017-Dec-02 19:28N 05°10' E 100°04'813.4
2017-Dec-02 18:52N 05°18' E 100°04'513.3
2017-Dec-02 18:28N 05°23' E 100°04'1114.0
2017-Dec-02 17:39N 05°34' E 100°06'215.3
2017-Dec-02 17:29N 05°36' E 100°08'714.1
2017-Dec-02 17:00N 05°34' E 100°15'613.0
2017-Dec-02 16:30N 05°30' E 100°20'5 9.8
2017-Dec-02 16:00N 05°25' E 100°21'0 0.0
2017-Dec-02 11:34N 05°25' E 100°21'0 0.0
2017-Dec-02 11:28N 05°25' E 100°21'0 0.0
2017-Dec-02 10:58N 05°25' E 100°21'0 0.0
2017-Dec-02 10:28N 05°25' E 100°21'0 0.0
2017-Dec-02 09:58N 05°25' E 100°21'0 0.1
2017-Dec-02 09:28N 05°25' E 100°21'0 0.0
2017-Dec-02 08:58N 05°25' E 100°21'0 0.0
2017-Dec-02 07:58N 05°25' E 100°21'0 0.0
2017-Dec-02 07:04N 05°25' E 100°21'0 0.0
2017-Dec-02 06:52N 05°25' E 100°21'0 0.0
2017-Dec-02 06:28N 05°25' E 100°21'0 0.5
2017-Dec-02 06:00N 05°25' E 100°21'4 7.4
2017-Dec-02 05:30N 05°29' E 100°20'30216.5
2017-Dec-01 11:13N 01°22' E 103°15'418.5
2017-Dec-01 11:00N 01°19' E 103°18'  
Track history (hours):
 
Tides and Currents Weather Stations Pressure Air Temp Water Temp Dewpoint Dewpoint Depression Visibility Wind Speed Wind Dir Waves Ship Positions

Mariner Of The Seas

Operator: Royal Caribbean Cruises Ltd

Last reported at 2017-Dec-11 10:52 UTC. Time now 2017-Dec-11 13:28 UTC.
Position N 01°19' E 103°19'.

Type: Passenger vessel. MMSI: 311493000.

Date/timePositionNaut miles runAvg speedWind from/ knotsBaromVisibWave heightAir tempDewpointWater temp
2017-Dec-11 10:52N 01°19' E 103°19'821.3
2017-Dec-11 10:28N 01°14' E 103°26'1020.6
2017-Dec-11 10:00N 01°11' E 103°35'918.2
2017-Dec-11 09:30N 01°08' E 103°44'1017.5
2017-Dec-11 08:56N 01°13' E 103°52'3 6.5
2017-Dec-11 08:30N 01°16' E 103°52'0 0.7
2017-Dec-11 08:00N 01°16' E 103°52'0 0.0
2017-Dec-11 07:24N 01°16' E 103°52'0 0.0
2017-Dec-11 06:57N 01°16' E 103°52'0 0.0
2017-Dec-11 06:30N 01°16' E 103°52'0 0.0
2017-Dec-11 05:51N 01°16' E 103°52'0 0.0
2017-Dec-11 05:30N 01°16' E 103°52'0 0.0
2017-Dec-11 05:00N 01°16' E 103°52'0 0.0
2017-Dec-11 04:30N 01°16' E 103°52'0 0.0
2017-Dec-11 03:57N 01°16' E 103°52'0 0.0
2017-Dec-11 03:30N 01°16' E 103°52'0 0.0
2017-Dec-11 03:00N 01°16' E 103°52'0 0.0
2017-Dec-11 02:21N 01°16' E 103°52'0 0.0
2017-Dec-11 01:51N 01°16' E 103°52'0 0.0
2017-Dec-11 01:30N 01°16' E 103°52'0 0.0
2017-Dec-11 00:57N 01°16' E 103°52'0 0.0
2017-Dec-11 00:27N 01°16' E 103°52'0 0.0
2017-Dec-10 23:51N 01°16' E 103°52'1 1.8
2017-Dec-10 23:30N 01°15' E 103°52'3 6.7
2017-Dec-10 23:00N 01°13' E 103°54'510.2
2017-Dec-10 22:30N 01°10' E 103°49'611.9
2017-Dec-10 21:59N 01°06' E 103°44'611.9
2017-Dec-10 21:30N 01°03' E 103°40'612.8
2017-Dec-10 21:00N 01°05' E 103°34'713.0
2017-Dec-10 20:27N 01°09' E 103°28'612.6
2017-Dec-10 19:59N 01°12' E 103°23'712.7
2017-Dec-10 19:28N 01°17' E 103°18'29112.6
2017-Dec-09 20:17N 04°56' E 100°06'413.7
2017-Dec-09 20:00N 04°60' E 100°06'713.7
2017-Dec-09 19:30N 05°07' E 100°05'713.5
2017-Dec-09 19:00N 05°13' E 100°04'713.3
2017-Dec-09 18:29N 05°20' E 100°04'613.1
2017-Dec-09 18:00N 05°27' E 100°05'713.5
2017-Dec-09 17:29N 05°33' E 100°06'511.2
2017-Dec-09 17:00N 05°36' E 100°11'713.0
2017-Dec-09 16:29N 05°33' E 100°17'612.8
2017-Dec-09 16:00N 05°28' E 100°21'3 5.7
2017-Dec-09 15:30N 05°25' E 100°21'0 0.0
2017-Dec-09 15:00N 05°25' E 100°21'0 0.0
2017-Dec-09 14:30N 05°25' E 100°21'0 0.0
2017-Dec-09 14:00N 05°25' E 100°21'0 0.0
2017-Dec-09 08:48N 05°25' E 100°21'0 0.0
2017-Dec-09 08:24N 05°25' E 100°21'0 0.0
2017-Dec-09 08:00N 05°25' E 100°21'0 0.0
2017-Dec-09 07:30N 05°25' E 100°21'0 0.3
2017-Dec-09 07:00N 05°25' E 100°21'2 4.6
2017-Dec-09 06:30N 05°28' E 100°21'712.3
2017-Dec-09 05:54N 05°33' E 100°16'31516.5
2017-Dec-08 10:46N 01°18' E 103°20'622.1
2017-Dec-08 10:29N 01°15' E 103°25'1021.1
2017-Dec-08 10:00N 01°12' E 103°35'918.7
2017-Dec-08 09:30N 01°08' E 103°43'816.4
2017-Dec-08 09:00N 01°12' E 103°51'4 8.3
2017-Dec-08 08:30N 01°16' E 103°52'0 0.3
2017-Dec-08 08:00N 01°16' E 103°52'0 0.0
2017-Dec-08 07:30N 01°16' E 103°52'0 0.0
2017-Dec-08 07:00N 01°16' E 103°52'0 0.0
2017-Dec-08 06:30N 01°16' E 103°52'0 0.0
2017-Dec-08 06:00N 01°16' E 103°52'0 0.0
2017-Dec-08 05:24N 01°16' E 103°52'0 0.0
2017-Dec-08 05:00N 01°16' E 103°52'0 0.0
2017-Dec-08 04:30N 01°16' E 103°52'0 0.0
2017-Dec-08 03:57N 01°16' E 103°52'0 0.0
2017-Dec-08 03:30N 01°16' E 103°52'0 0.0
2017-Dec-08 03:00N 01°16' E 103°52'0 0.0
2017-Dec-08 02:30N 01°16' E 103°52'0 0.0
2017-Dec-08 02:00N 01°16' E 103°52'0 0.0
2017-Dec-08 01:30N 01°16' E 103°52'0 0.0
2017-Dec-08 00:54N 01°16' E 103°52'0 0.0
2017-Dec-08 00:30N 01°16' E 103°52'0 0.0
2017-Dec-07 23:57N 01°16' E 103°52'0 0.2
2017-Dec-07 23:30N 01°16' E 103°52'3 5.3
2017-Dec-07 23:00N 01°14' E 103°53'5 9.1
2017-Dec-07 22:30N 01°11' E 103°49'611.9
2017-Dec-07 22:00N 01°07' E 103°45'612.9
2017-Dec-07 21:30N 01°03' E 103°40'714.8
2017-Dec-07 21:01N 01°06' E 103°33'713.8
2017-Dec-07 20:30N 01°10' E 103°27'713.8
2017-Dec-07 20:00N 01°14' E 103°21'814.0
2017-Dec-07 19:28N 01°19' E 103°15'  
2017-Dec-04 10:30N 01°14' E 103°26'1121.6
2017-Dec-04 10:00N 01°12' E 103°36'918.4
2017-Dec-04 09:30N 01°09' E 103°45'815.8
2017-Dec-04 09:00N 01°13' E 103°52'3 6.7
2017-Dec-04 08:30N 01°16' E 103°52'0 0.0
2017-Dec-04 07:57N 01°16' E 103°52'0 0.0
2017-Dec-04 07:30N 01°16' E 103°52'0 0.0
2017-Dec-04 07:00N 01°16' E 103°52'0 0.0
2017-Dec-04 06:30N 01°16' E 103°52'0 0.0
2017-Dec-04 05:54N 01°16' E 103°52'0 0.0
2017-Dec-04 05:30N 01°16' E 103°52'0 0.0
2017-Dec-04 04:54N 01°16' E 103°52'0 0.0
2017-Dec-04 04:30N 01°16' E 103°52'0 0.0
2017-Dec-04 04:00N 01°16' E 103°52'0 0.0
2017-Dec-04 03:30N 01°16' E 103°52'0 0.0
2017-Dec-04 02:54N 01°16' E 103°52'0 0.0
2017-Dec-04 02:30N 01°16' E 103°52'0 0.0
2017-Dec-04 01:54N 01°16' E 103°52'0 0.0
2017-Dec-04 01:30N 01°16' E 103°52'0 0.0
2017-Dec-04 01:00N 01°16' E 103°52'0 0.0
2017-Dec-04 00:30N 01°16' E 103°52'0 0.1
2017-Dec-04 00:00N 01°16' E 103°52'3 6.5
2017-Dec-03 23:30N 01°13' E 103°54'4 8.7
2017-Dec-03 23:00N 01°11' E 103°50'4 8.7
2017-Dec-03 22:30N 01°09' E 103°47'5 9.5
2017-Dec-03 22:00N 01°05' E 103°43'611.3
2017-Dec-03 21:28N 01°03' E 103°38'612.7
2017-Dec-03 20:57N 01°07' E 103°32'612.7
2017-Dec-03 20:29N 01°10' E 103°27'30612.6
2017-Dec-02 20:14N 04°60' E 100°05'513.4
2017-Dec-02 19:52N 05°05' E 100°05'513.2
2017-Dec-02 19:28N 05°10' E 100°04'813.4
2017-Dec-02 18:52N 05°18' E 100°04'513.3
2017-Dec-02 18:28N 05°23' E 100°04'1114.0
2017-Dec-02 17:39N 05°34' E 100°06'215.3
2017-Dec-02 17:29N 05°36' E 100°08'714.1
2017-Dec-02 17:00N 05°34' E 100°15'613.0
2017-Dec-02 16:30N 05°30' E 100°20'5 9.8
2017-Dec-02 16:00N 05°25' E 100°21'0 0.0
2017-Dec-02 11:34N 05°25' E 100°21'0 0.0
2017-Dec-02 11:28N 05°25' E 100°21'0 0.0
2017-Dec-02 10:58N 05°25' E 100°21'0 0.0
2017-Dec-02 10:28N 05°25' E 100°21'0 0.0
2017-Dec-02 09:58N 05°25' E 100°21'0 0.1
2017-Dec-02 09:28N 05°25' E 100°21'0 0.0
2017-Dec-02 08:58N 05°25' E 100°21'0 0.0
2017-Dec-02 07:58N 05°25' E 100°21'0 0.0
2017-Dec-02 07:04N 05°25' E 100°21'0 0.0
2017-Dec-02 06:52N 05°25' E 100°21'0 0.0
2017-Dec-02 06:28N 05°25' E 100°21'0 0.5
2017-Dec-02 06:00N 05°25' E 100°21'4 7.4
2017-Dec-02 05:30N 05°29' E 100°20'30216.5
2017-Dec-01 11:13N 01°22' E 103°15'418.5
2017-Dec-01 11:00N 01°19' E 103°18'  

Dump ship's entire track history